createdAt,value
2019-02-21T00:00:05.746Z,15.80
2019-02-21T00:02:35.317Z,15.97
2019-02-21T00:05:06.419Z,16.67
2019-02-21T00:07:35.357Z,16.50
2019-02-21T00:10:04.777Z,17.87
2019-02-21T00:12:33.831Z,16.70
2019-02-21T00:15:03.337Z,17.03
2019-02-21T00:17:32.537Z,17.80
2019-02-21T00:20:05.030Z,17.53
2019-02-21T00:22:34.286Z,16.60
2019-02-21T00:25:03.503Z,16.27
2019-02-21T00:27:39.719Z,16.33
2019-02-21T00:30:34.783Z,18.10
2019-02-21T00:32:52.923Z,16.63
2019-02-21T00:35:26.383Z,17.97
2019-02-21T00:37:55.476Z,17.60
2019-02-21T00:40:24.920Z,17.33
2019-02-21T00:42:54.610Z,17.67
2019-02-21T00:45:23.908Z,17.97
2019-02-21T00:47:54.932Z,17.73
2019-02-21T00:50:24.788Z,17.60
2019-02-21T00:52:53.783Z,18.07
2019-02-21T00:55:27.784Z,17.80
2019-02-21T00:57:55.936Z,17.73
2019-02-21T01:00:24.984Z,17.97
2019-02-21T01:02:54.411Z,17.63
2019-02-21T01:05:23.709Z,18.47
2019-02-21T01:07:52.896Z,18.40
2019-02-21T01:10:21.889Z,17.50
2019-02-21T01:12:55.088Z,17.43
2019-02-21T01:15:24.183Z,17.63
2019-02-21T01:17:54.792Z,16.80
2019-02-21T01:20:25.342Z,17.13
2019-02-21T01:22:54.849Z,17.33
2019-02-21T01:25:28.657Z,17.03
2019-02-21T01:28:06.274Z,17.87
2019-02-21T01:30:44.457Z,17.83
2019-02-21T01:33:13.459Z,16.73
2019-02-21T01:35:47.509Z,17.73
2019-02-21T01:38:16.180Z,18.30
2019-02-21T01:40:46.959Z,18.00
2019-02-21T01:46:08.624Z,18.43
2019-02-21T01:48:42.875Z,18.63
2019-02-21T01:51:13.590Z,18.87
2019-02-21T01:53:43.067Z,17.73
2019-02-21T01:56:14.090Z,18.60
2019-02-21T01:58:45.585Z,18.33
2019-02-21T02:01:20.949Z,17.80
2019-02-21T02:03:51.021Z,18.50
2019-02-21T02:06:22.837Z,18.00
2019-02-21T02:08:51.972Z,18.87
2019-02-21T02:11:23.523Z,19.17
2019-02-21T02:13:57.049Z,18.87
2019-02-21T02:16:26.138Z,17.97
2019-02-21T02:18:58.204Z,18.67
2019-02-21T02:21:27.198Z,17.40
2019-02-21T02:23:59.254Z,17.77
2019-02-21T02:26:28.843Z,18.07
2019-02-21T02:28:59.110Z,17.53
2019-02-21T02:31:30.104Z,17.53
2019-02-21T02:33:59.609Z,17.43
2019-02-21T02:36:31.790Z,17.53
2019-02-21T02:39:04.421Z,17.73
2019-02-21T02:41:36.485Z,17.97
2019-02-21T02:44:08.723Z,17.67
2019-02-21T02:46:42.120Z,18.83
2019-02-21T02:49:17.046Z,18.13
2019-02-21T02:51:59.846Z,18.80
2019-02-21T02:54:32.228Z,18.53
2019-02-21T02:57:09.817Z,19.13
2019-02-21T02:59:45.696Z,19.40
2019-02-21T03:02:20.000Z,18.43
2019-02-21T03:04:55.895Z,19.37
2019-02-21T03:07:26.996Z,19.93
2019-02-21T03:09:58.614Z,19.57
2019-02-21T03:12:39.808Z,19.93
2019-02-21T03:15:08.766Z,18.93
2019-02-21T03:17:37.527Z,19.37
2019-02-21T03:20:17.644Z,20.00
2019-02-21T03:22:55.727Z,19.83
2019-02-21T03:25:27.691Z,19.67
2019-02-21T03:28:03.603Z,20.43
2019-02-21T03:30:41.620Z,21.67
2019-02-21T03:33:15.881Z,21.23
2019-02-21T03:35:50.887Z,21.43
2019-02-21T03:38:23.376Z,21.20
2019-02-21T03:40:58.271Z,20.63
2019-02-21T03:43:30.659Z,20.90
2019-02-21T03:45:59.592Z,21.10
2019-02-21T03:48:28.782Z,21.03
2019-02-21T03:50:58.056Z,21.93
2019-02-21T03:53:27.077Z,21.20
2019-02-21T03:55:57.805Z,21.70
2019-02-21T03:58:27.317Z,20.60
2019-02-21T04:00:56.374Z,21.03
2019-02-21T04:03:28.498Z,21.53
2019-02-21T04:05:57.920Z,21.60
2019-02-21T04:08:26.962Z,21.93
2019-02-21T04:10:55.910Z,22.63
2019-02-21T04:13:24.980Z,21.90
2019-02-21T04:15:55.209Z,21.70
2019-02-21T04:18:28.551Z,22.73
2019-02-21T04:20:57.693Z,23.47
2019-02-21T04:23:27.557Z,21.90
2019-02-21T04:25:56.855Z,23.40
2019-02-21T04:28:26.177Z,23.20
2019-02-21T04:30:58.134Z,21.83
2019-02-21T04:33:27.605Z,22.97
2019-02-21T04:35:56.803Z,23.87
2019-02-21T04:38:34.464Z,23.97
2019-02-21T04:41:09.562Z,22.83
2019-02-21T04:43:38.917Z,23.20
2019-02-21T04:46:18.107Z,23.47
2019-02-21T04:48:47.419Z,22.93
2019-02-21T04:51:16.428Z,24.23
2019-02-21T04:53:45.389Z,23.63
2019-02-21T04:56:14.548Z,23.70
2019-02-21T04:58:43.648Z,22.63
2019-02-21T05:01:12.709Z,24.30
2019-02-21T05:03:41.763Z,25.03
2019-02-21T05:06:11.101Z,24.47
2019-02-21T05:08:40.107Z,24.07
2019-02-21T05:11:14.086Z,24.83
2019-02-21T05:13:45.044Z,25.27
2019-02-21T05:16:14.453Z,22.83
2019-02-21T05:18:45.226Z,23.83
2019-02-21T05:21:23.815Z,23.60
2019-02-21T05:23:55.489Z,23.80
2019-02-21T05:26:40.975Z,23.33
2019-02-21T05:29:11.500Z,24.30
2019-02-21T05:31:52.686Z,23.27
2019-02-21T05:34:32.523Z,23.50
2019-02-21T05:37:06.659Z,24.20
2019-02-21T05:39:53.244Z,23.03
2019-02-21T05:42:30.286Z,22.07
2019-02-21T05:45:11.063Z,23.80
2019-02-21T05:47:43.488Z,23.13
2019-02-21T05:50:15.624Z,23.73
2019-02-21T05:52:49.240Z,22.83
2019-02-21T05:55:37.396Z,22.87
2019-02-21T05:58:13.873Z,23.83
2019-02-21T06:00:56.110Z,23.30
2019-02-21T06:03:26.739Z,23.30
2019-02-21T06:06:03.464Z,23.20
2019-02-21T06:08:34.511Z,23.07
2019-02-21T06:11:20.777Z,22.37
2019-02-21T06:14:10.525Z,22.37
2019-02-21T06:16:49.931Z,22.67
2019-02-21T06:19:26.619Z,23.70
2019-02-21T06:22:10.151Z,23.17
2019-02-21T06:24:35.511Z,24.23
2019-02-21T06:27:19.595Z,24.23
2019-02-21T06:29:50.785Z,22.47
2019-02-21T06:32:20.028Z,23.57
2019-02-21T06:34:48.983Z,21.77
2019-02-21T06:37:27.408Z,22.20
2019-02-21T06:39:59.608Z,21.50
2019-02-21T06:42:41.134Z,23.20
2019-02-21T06:45:22.782Z,22.70
2019-02-21T06:48:05.811Z,23.53
2019-02-21T06:50:52.557Z,23.70
2019-02-21T06:53:27.858Z,24.37
2019-02-21T06:56:04.599Z,22.60
2019-02-21T06:58:33.144Z,23.10
2019-02-21T07:01:02.151Z,22.63
2019-02-21T07:03:31.146Z,22.13
2019-02-21T07:06:00.085Z,22.40
2019-02-21T07:08:29.334Z,23.43
2019-02-21T07:11:06.237Z,22.80
2019-02-21T07:13:30.414Z,22.57
2019-02-21T07:16:03.814Z,23.07
2019-02-21T07:18:41.060Z,22.10
2019-02-21T07:21:13.130Z,22.13
2019-02-21T07:23:45.490Z,21.80
2019-02-21T07:26:19.820Z,21.87
2019-02-21T07:28:49.353Z,22.07
2019-02-21T07:31:28.291Z,21.50
2019-02-21T07:33:48.967Z,22.27
2019-02-21T07:36:18.078Z,23.47
2019-02-21T07:38:47.395Z,22.77
2019-02-21T07:41:18.629Z,22.73
2019-02-21T07:43:47.484Z,22.70
2019-02-21T07:46:16.692Z,21.93
2019-02-21T07:48:45.762Z,23.23
2019-02-21T07:51:18.538Z,23.33
2019-02-21T07:53:49.725Z,23.30
2019-02-21T07:56:19.447Z,23.43
2019-02-21T07:58:57.562Z,23.07
2019-02-21T08:01:21.424Z,22.87
2019-02-21T08:03:50.928Z,22.17
2019-02-21T08:06:24.263Z,24.17
2019-02-21T08:08:55.015Z,23.00
2019-02-21T08:11:29.935Z,24.00
2019-02-21T08:13:59.772Z,22.07
2019-02-21T08:16:29.578Z,22.67
2019-02-21T08:19:02.549Z,22.83
2019-02-21T08:21:33.172Z,23.20
2019-02-21T08:24:03.481Z,23.83
2019-02-21T08:26:32.550Z,23.20
2019-02-21T08:29:01.944Z,23.63
2019-02-21T08:31:31.332Z,24.50
2019-02-21T08:34:14.011Z,23.07
2019-02-21T08:36:44.482Z,24.73
2019-02-21T08:39:13.466Z,23.43
2019-02-21T08:41:42.428Z,22.63
2019-02-21T08:44:12.257Z,24.17
2019-02-21T08:46:41.589Z,24.23
2019-02-21T08:49:16.245Z,24.10
2019-02-21T08:51:46.753Z,23.43
2019-02-21T08:54:15.735Z,23.33
2019-02-21T08:56:44.680Z,23.70
2019-02-21T08:59:13.678Z,24.03
2019-02-21T09:01:42.828Z,22.80
2019-02-21T09:04:26.475Z,22.67
2019-02-21T09:06:42.438Z,23.13
2019-02-21T09:09:14.980Z,24.13
2019-02-21T09:11:44.066Z,22.90
2019-02-21T09:14:13.228Z,23.23
2019-02-21T09:16:44.455Z,24.27
2019-02-21T09:19:15.178Z,24.93
2019-02-21T09:21:44.571Z,23.13
2019-02-21T09:24:35.310Z,23.20
2019-02-21T09:26:46.335Z,24.23
2019-02-21T09:29:15.361Z,24.13
2019-02-21T09:31:44.397Z,23.37
2019-02-21T09:34:20.780Z,24.07
2019-02-21T09:36:44.493Z,23.40
2019-02-21T09:39:15.869Z,21.83
2019-02-21T09:41:44.085Z,22.73
2019-02-21T09:44:13.186Z,22.33
2019-02-21T09:46:42.957Z,22.43
2019-02-21T09:49:12.254Z,21.90
2019-02-21T09:51:41.272Z,20.57
2019-02-21T09:57:41.807Z,23.23
2019-02-21T10:00:17.308Z,24.10
2019-02-21T10:02:47.629Z,21.87
2019-02-21T10:05:17.331Z,22.10
2019-02-21T10:07:46.900Z,23.37
2019-02-21T10:10:20.259Z,22.17
2019-02-21T10:12:49.819Z,22.10
2019-02-21T10:15:19.605Z,22.00
2019-02-21T10:17:50.887Z,21.63
2019-02-21T10:20:22.056Z,22.87
2019-02-21T10:22:51.688Z,22.87
2019-02-21T10:25:29.554Z,22.33
2019-02-21T10:27:59.833Z,21.70
2019-02-21T10:30:29.761Z,22.03
2019-02-21T10:32:59.367Z,22.13
2019-02-21T10:35:28.926Z,20.93
2019-02-21T10:37:58.417Z,22.57
2019-02-21T10:40:28.146Z,22.20
2019-02-21T10:42:57.683Z,22.57
2019-02-21T10:45:27.244Z,22.13
2019-02-21T10:47:57.764Z,21.40
2019-02-21T10:50:27.284Z,21.33
2019-02-21T10:52:56.807Z,22.77
2019-02-21T10:55:26.402Z,23.80
2019-02-21T10:57:55.980Z,23.80
2019-02-21T11:00:27.968Z,22.97
2019-02-21T11:02:57.523Z,22.83
2019-02-21T11:05:27.009Z,24.40
2019-02-21T11:07:56.578Z,25.10
2019-02-21T11:10:32.135Z,23.77
2019-02-21T11:13:01.683Z,23.70
2019-02-21T11:15:31.518Z,23.03
2019-02-21T11:18:01.509Z,23.53
2019-02-21T11:20:31.128Z,23.03
2019-02-21T11:23:01.004Z,24.50
2019-02-21T11:25:31.468Z,24.67
2019-02-21T11:28:01.232Z,23.30
2019-02-21T11:30:31.083Z,24.80
2019-02-21T11:33:00.871Z,24.70
2019-02-21T11:35:30.503Z,24.63
2019-02-21T11:38:00.403Z,24.90
2019-02-21T11:40:30.081Z,24.97
2019-02-21T11:43:02.336Z,24.87
2019-02-21T11:45:32.083Z,24.10
2019-02-21T11:48:01.807Z,24.80
2019-02-21T11:50:32.401Z,25.57
2019-02-21T11:53:02.066Z,23.73
2019-02-21T11:55:31.944Z,24.90
2019-02-21T11:58:01.539Z,25.53
2019-02-21T12:00:31.698Z,25.13
2019-02-21T12:03:01.652Z,25.87
2019-02-21T12:05:32.122Z,24.87
2019-02-21T12:08:02.023Z,25.23
2019-02-21T12:10:31.646Z,24.83
2019-02-21T12:13:01.223Z,24.40
2019-02-21T12:15:30.943Z,25.40
2019-02-21T12:18:00.745Z,25.70
2019-02-21T12:20:30.663Z,24.20
2019-02-21T12:23:00.291Z,24.87
2019-02-21T12:25:30.034Z,24.87
2019-02-21T12:27:59.694Z,25.90
2019-02-21T12:30:29.419Z,25.87
2019-02-21T12:32:59.158Z,26.53
2019-02-21T12:35:29.854Z,26.07
2019-02-21T12:37:59.963Z,25.80
2019-02-21T12:40:32.449Z,25.83
2019-02-21T12:43:02.095Z,27.07
2019-02-21T12:45:31.700Z,26.57
2019-02-21T12:48:01.370Z,26.47
2019-02-21T12:50:31.208Z,29.87
2019-02-21T12:53:01.662Z,31.37
2019-02-21T12:55:31.870Z,33.10
2019-02-21T12:58:01.642Z,33.37
2019-02-21T13:00:31.423Z,33.53
2019-02-21T13:03:01.685Z,34.57
2019-02-21T13:05:40.300Z,36.13
2019-02-21T13:08:03.587Z,34.43
2019-02-21T13:10:34.979Z,33.67
2019-02-21T13:13:04.455Z,33.47
2019-02-21T13:15:34.060Z,34.27
2019-02-21T13:18:15.044Z,34.27
2019-02-21T13:20:35.157Z,34.37
2019-02-21T13:23:05.488Z,36.63
2019-02-21T13:25:35.409Z,38.33
2019-02-21T13:28:04.980Z,38.37
2019-02-21T13:30:34.612Z,35.13
2019-02-21T13:33:04.490Z,36.47
2019-02-21T13:35:34.286Z,36.20
2019-02-21T13:38:04.068Z,37.93
2019-02-21T13:40:34.027Z,34.67
2019-02-21T13:43:03.643Z,34.77
2019-02-21T13:45:33.335Z,33.17
2019-02-21T13:48:03.288Z,34.03
2019-02-21T13:50:33.084Z,33.20
2019-02-21T13:53:02.761Z,33.33
2019-02-21T13:55:33.495Z,34.00
2019-02-21T13:58:03.315Z,33.17
2019-02-21T14:00:33.204Z,34.00
2019-02-21T14:03:02.999Z,35.03
2019-02-21T14:05:33.951Z,35.63
2019-02-21T14:08:04.741Z,37.37
2019-02-21T14:10:34.585Z,36.33
2019-02-21T14:13:04.287Z,39.80
2019-02-21T14:15:34.662Z,39.30
2019-02-21T14:18:04.802Z,40.30
2019-02-21T14:20:44.636Z,39.73
2019-02-21T14:23:05.686Z,41.30
2019-02-21T14:25:40.762Z,43.13
2019-02-21T14:28:06.491Z,44.97
2019-02-21T14:30:36.278Z,46.47
2019-02-21T14:33:06.003Z,48.80
2019-02-21T14:35:35.770Z,48.63
2019-02-21T14:38:05.890Z,51.73
2019-02-21T14:40:35.679Z,52.80
2019-02-21T14:43:05.531Z,52.63
2019-02-21T14:45:35.291Z,54.20
2019-02-21T14:48:05.187Z,55.03
2019-02-21T14:50:36.187Z,53.30
2019-02-21T14:53:06.832Z,53.10
2019-02-21T14:55:36.800Z,54.93
2019-02-21T14:58:11.225Z,54.97
2019-02-21T15:00:41.208Z,57.20
2019-02-21T15:03:21.587Z,56.33
2019-02-21T15:05:44.927Z,57.50
2019-02-21T15:08:16.497Z,57.87
2019-02-21T15:10:46.343Z,61.87
2019-02-21T15:13:16.511Z,60.97
2019-02-21T15:15:47.311Z,62.70
2019-02-21T15:18:19.464Z,58.80
2019-02-21T15:20:51.443Z,56.53
2019-02-21T15:23:24.371Z,57.17
2019-02-21T15:26:00.309Z,56.90
2019-02-21T15:28:31.603Z,56.63
2019-02-21T15:31:01.456Z,55.07
2019-02-21T15:33:32.392Z,54.87
2019-02-21T15:36:02.308Z,52.60
2019-02-21T15:38:33.873Z,53.60
2019-02-21T15:41:06.138Z,51.77
2019-02-21T15:43:36.149Z,52.40
2019-02-21T15:46:07.455Z,53.47
2019-02-21T15:48:37.534Z,51.63
2019-02-21T15:51:07.324Z,52.00
2019-02-21T15:53:37.173Z,51.23
2019-02-21T15:56:07.069Z,51.47
2019-02-21T15:58:36.955Z,51.27
2019-02-21T16:01:06.795Z,49.63
2019-02-21T16:03:36.629Z,51.77
2019-02-21T16:06:06.612Z,50.93
2019-02-21T16:08:36.470Z,49.97
2019-02-21T16:11:07.005Z,49.57
2019-02-21T16:13:37.600Z,45.33
2019-02-21T16:16:07.570Z,46.43
2019-02-21T16:18:38.029Z,48.43
2019-02-21T16:21:07.732Z,45.20
2019-02-21T16:23:37.578Z,44.70
2019-02-21T16:26:07.340Z,45.43
2019-02-21T16:28:37.510Z,43.70
2019-02-21T16:31:07.230Z,42.30
2019-02-21T16:33:36.867Z,41.43
2019-02-21T16:36:06.654Z,39.60
2019-02-21T16:38:36.362Z,38.83
2019-02-21T16:41:06.235Z,35.33
2019-02-21T16:43:37.196Z,31.87
2019-02-21T16:46:08.040Z,32.67
2019-02-21T16:48:37.945Z,29.93
2019-02-21T16:51:09.635Z,31.30
2019-02-21T16:53:39.495Z,29.13
2019-02-21T16:56:09.411Z,29.73
2019-02-21T16:58:39.005Z,29.13
2019-02-21T17:01:09.516Z,26.87
2019-02-21T17:03:40.450Z,25.80
2019-02-21T17:06:10.706Z,25.30
2019-02-21T17:08:40.547Z,24.83
2019-02-21T17:11:10.180Z,24.13
2019-02-21T17:13:39.878Z,22.77
2019-02-21T17:16:10.122Z,23.07
2019-02-21T17:18:39.821Z,23.17
2019-02-21T17:21:09.603Z,23.53
2019-02-21T17:23:39.309Z,25.73
2019-02-21T17:26:09.016Z,26.07
2019-02-21T17:28:38.715Z,25.30
2019-02-21T17:31:08.420Z,28.43
2019-02-21T17:33:39.775Z,28.13
2019-02-21T17:36:09.578Z,29.57
2019-02-21T17:38:40.573Z,29.40
2019-02-21T17:41:11.882Z,29.60
2019-02-21T17:43:41.808Z,30.77
2019-02-21T17:46:12.251Z,32.70
2019-02-21T17:48:42.077Z,32.73
2019-02-21T17:51:11.789Z,32.60
2019-02-21T17:53:42.216Z,33.20
2019-02-21T17:56:15.727Z,34.53
2019-02-21T17:58:45.507Z,32.10
2019-02-21T18:01:15.252Z,34.47
2019-02-21T18:03:45.005Z,35.17
2019-02-21T18:06:15.943Z,36.00
2019-02-21T18:08:45.676Z,33.33
2019-02-21T18:11:15.593Z,34.67
2019-02-21T18:13:45.375Z,33.30
2019-02-21T18:16:15.218Z,34.73
2019-02-21T18:18:44.993Z,35.13
2019-02-21T18:21:14.806Z,33.07
2019-02-21T18:23:44.778Z,33.20
2019-02-21T18:26:16.399Z,34.00
2019-02-21T18:28:46.610Z,33.20
2019-02-21T18:31:16.573Z,32.40
2019-02-21T18:33:46.623Z,31.90
2019-02-21T18:36:17.241Z,33.40
2019-02-21T18:38:50.442Z,32.80
2019-02-21T18:41:20.461Z,32.40
2019-02-21T18:43:50.337Z,31.63
2019-02-21T18:46:20.403Z,30.47
2019-02-21T18:48:50.502Z,29.10
2019-02-21T18:51:20.652Z,29.93
2019-02-21T18:53:50.656Z,29.13
2019-02-21T18:56:20.819Z,28.27
2019-02-21T18:58:50.697Z,30.83
2019-02-21T19:01:22.089Z,29.33
2019-02-21T19:03:52.203Z,30.60
2019-02-21T19:06:22.221Z,29.23
2019-02-21T19:08:53.319Z,31.60
2019-02-21T19:11:23.637Z,31.93
2019-02-21T19:13:53.512Z,29.50
2019-02-21T19:16:24.143Z,31.27
2019-02-21T19:18:54.186Z,31.13
2019-02-21T19:21:24.873Z,30.87
2019-02-21T19:23:54.855Z,31.73
2019-02-21T19:26:25.303Z,31.03
2019-02-21T19:28:55.365Z,32.77
2019-02-21T19:31:25.944Z,31.77
2019-02-21T19:33:55.918Z,32.87
2019-02-21T19:36:26.089Z,30.87
2019-02-21T19:38:56.182Z,32.17
2019-02-21T19:41:27.253Z,32.43
2019-02-21T19:44:08.154Z,31.63
2019-02-21T19:46:28.730Z,31.57
2019-02-21T19:48:58.970Z,33.07
2019-02-21T19:51:29.049Z,32.10
2019-02-21T19:53:59.187Z,34.07
2019-02-21T19:56:29.354Z,33.53
2019-02-21T19:58:59.579Z,32.00
2019-02-21T20:01:30.097Z,32.87
2019-02-21T20:04:00.362Z,33.03
2019-02-21T20:06:32.481Z,35.63
2019-02-21T20:09:02.475Z,34.80
2019-02-21T20:11:35.726Z,35.33
2019-02-21T20:14:06.080Z,35.87
2019-02-21T20:16:36.268Z,37.03
2019-02-21T20:19:06.880Z,37.57
2019-02-21T20:21:37.272Z,36.57
2019-02-21T20:24:07.542Z,37.07
2019-02-21T20:26:39.165Z,38.27
2019-02-21T20:29:14.110Z,38.67
2019-02-21T20:31:44.347Z,40.27
2019-02-21T20:34:14.853Z,42.87
2019-02-21T20:36:51.022Z,42.50
2019-02-21T20:39:17.642Z,42.70
2019-02-21T20:41:48.052Z,43.57
2019-02-21T20:44:18.606Z,43.93
2019-02-21T20:46:51.066Z,45.17
2019-02-21T20:49:21.026Z,46.47
2019-02-21T20:51:51.160Z,47.70
2019-02-21T20:54:21.637Z,46.87
2019-02-21T20:56:51.970Z,46.77
2019-02-21T20:59:22.073Z,47.83
2019-02-21T21:01:52.645Z,47.53
2019-02-21T21:04:22.757Z,45.67
2019-02-21T21:06:54.263Z,45.87
2019-02-21T21:09:25.062Z,46.57
2019-02-21T21:11:54.845Z,44.70
2019-02-21T21:14:25.601Z,44.77
2019-02-21T21:16:55.719Z,49.13
2019-02-21T21:19:25.359Z,46.93
2019-02-21T21:21:55.414Z,47.77
2019-02-21T21:24:25.521Z,46.63
2019-02-21T21:26:55.238Z,45.17
2019-02-21T21:29:25.142Z,45.00
2019-02-21T21:31:55.638Z,45.43
2019-02-21T21:34:26.120Z,45.97
2019-02-21T21:36:56.380Z,44.87
2019-02-21T21:39:26.961Z,45.57
2019-02-21T21:41:57.038Z,44.87
2019-02-21T21:44:26.810Z,43.13
2019-02-21T21:46:57.444Z,45.87
2019-02-21T21:49:27.442Z,45.67
2019-02-21T21:51:57.216Z,43.47
2019-02-21T21:54:26.933Z,46.53
2019-02-21T21:56:56.680Z,48.43
2019-02-21T21:59:26.457Z,45.67
2019-02-21T22:01:56.705Z,47.67
2019-02-21T22:04:26.561Z,47.20
2019-02-21T22:06:56.845Z,50.33
2019-02-21T22:09:27.048Z,47.17
2019-02-21T22:11:56.703Z,46.80
2019-02-21T22:14:26.418Z,45.70
2019-02-21T22:16:57.241Z,50.57
2019-02-21T22:19:26.872Z,48.40
2019-02-21T22:21:56.740Z,48.33
2019-02-21T22:24:26.918Z,48.27
2019-02-21T22:27:15.158Z,49.13
2019-02-21T22:29:44.818Z,50.03
2019-02-21T22:32:15.319Z,47.33
2019-02-21T22:34:44.964Z,50.03
2019-02-21T22:37:14.802Z,52.40
2019-02-21T22:39:44.587Z,48.77
2019-02-21T22:42:14.254Z,52.50
2019-02-21T22:44:44.478Z,53.10
2019-02-21T22:47:14.586Z,50.60
2019-02-21T22:49:44.875Z,55.63
2019-02-21T22:52:17.115Z,52.17
2019-02-21T22:54:46.893Z,50.83
2019-02-21T22:57:16.640Z,56.90
2019-02-21T22:59:48.863Z,54.43
2019-02-21T23:02:19.361Z,51.03
2019-02-21T23:04:51.962Z,50.20
2019-02-21T23:07:30.102Z,52.63
2019-02-21T23:10:00.244Z,54.23
2019-02-21T23:12:30.228Z,51.60
2019-02-21T23:15:00.226Z,52.10
2019-02-21T23:17:30.441Z,53.40
2019-02-21T23:20:00.976Z,52.17
2019-02-21T23:22:30.804Z,51.60
2019-02-21T23:25:00.707Z,50.17
2019-02-21T23:27:30.413Z,50.73
2019-02-21T23:30:00.018Z,53.77
2019-02-21T23:32:29.743Z,50.07
2019-02-21T23:34:59.934Z,53.20
2019-02-21T23:37:29.742Z,49.10
2019-02-21T23:39:59.374Z,50.60
2019-02-21T23:42:29.098Z,52.37
2019-02-21T23:44:59.098Z,49.77
2019-02-21T23:47:28.851Z,52.93
2019-02-21T23:49:58.482Z,50.80
2019-02-21T23:52:28.086Z,48.57
2019-02-21T23:54:57.999Z,47.30
2019-02-21T23:57:27.735Z,48.70
2019-02-21T23:59:57.362Z,51.67
